sensor_id;sensor_type;location;lat;lon;timestamp;P1;durP1;ratioP1;P2;durP2;ratioP2
81320;SDS011;70785;52.570;5.638;2023-08-31T00:01:10;3.25;;;1.63;;
81320;SDS011;70785;52.570;5.638;2023-08-31T00:03:37;3.65;;;1.40;;
81320;SDS011;70785;52.570;5.638;2023-08-31T00:06:03;2.47;;;0.68;;
81320;SDS011;70785;52.570;5.638;2023-08-31T00:08:30;2.42;;;0.65;;
81320;SDS011;70785;52.570;5.638;2023-08-31T00:10:56;1.05;;;0.40;;
81320;SDS011;70785;52.570;5.638;2023-08-31T00:13:24;2.40;;;0.57;;
81320;SDS011;70785;52.570;5.638;2023-08-31T00:15:50;1.00;;;0.50;;
81320;SDS011;70785;52.570;5.638;2023-08-31T00:18:16;1.05;;;0.10;;
81320;SDS011;70785;52.570;5.638;2023-08-31T00:20:45;0.65;;;0.13;;
81320;SDS011;70785;52.570;5.638;2023-08-31T00:23:11;1.48;;;0.40;;
81320;SDS011;70785;52.570;5.638;2023-08-31T00:25:37;1.08;;;0.10;;
81320;SDS011;70785;52.570;5.638;2023-08-31T00:28:03;2.65;;;0.47;;
81320;SDS011;70785;52.570;5.638;2023-08-31T00:30:31;1.25;;;0.30;;
81320;SDS011;70785;52.570;5.638;2023-08-31T00:32:58;3.97;;;0.90;;
81320;SDS011;70785;52.570;5.638;2023-08-31T00:35:27;0.38;;;0.17;;
81320;SDS011;70785;52.570;5.638;2023-08-31T00:37:54;1.50;;;0.47;;
81320;SDS011;70785;52.570;5.638;2023-08-31T00:40:24;1.98;;;0.20;;
81320;SDS011;70785;52.570;5.638;2023-08-31T00:42:51;3.30;;;0.20;;
81320;SDS011;70785;52.570;5.638;2023-08-31T00:45:17;2.13;;;0.40;;
81320;SDS011;70785;52.570;5.638;2023-08-31T00:47:45;0.77;;;0.30;;
81320;SDS011;70785;52.570;5.638;2023-08-31T00:50:13;2.33;;;0.20;;
81320;SDS011;70785;52.570;5.638;2023-08-31T00:52:39;0.98;;;0.30;;
81320;SDS011;70785;52.570;5.638;2023-08-31T00:55:08;0.98;;;0.20;;
81320;SDS011;70785;52.570;5.638;2023-08-31T00:57:35;0.80;;;0.30;;
81320;SDS011;70785;52.570;5.638;2023-08-31T01:00:01;2.17;;;0.30;;
81320;SDS011;70785;52.570;5.638;2023-08-31T01:02:40;1.35;;;0.60;;
81320;SDS011;70785;52.570;5.638;2023-08-31T01:05:31;1.88;;;0.57;;
81320;SDS011;70785;52.570;5.638;2023-08-31T01:08:19;0.90;;;0.50;;
81320;SDS011;70785;52.570;5.638;2023-08-31T01:11:22;1.48;;;0.40;;
81320;SDS011;70785;52.570;5.638;2023-08-31T01:14:00;1.80;;;0.38;;
81320;SDS011;70785;52.570;5.638;2023-08-31T01:16:33;3.58;;;0.55;;
81320;SDS011;70785;52.570;5.638;2023-08-31T01:19:04;2.05;;;0.40;;
81320;SDS011;70785;52.570;5.638;2023-08-31T01:21:51;1.05;;;0.30;;
81320;SDS011;70785;52.570;5.638;2023-08-31T01:24:20;2.50;;;0.30;;
81320;SDS011;70785;52.570;5.638;2023-08-31T01:26:48;1.65;;;0.55;;
81320;SDS011;70785;52.570;5.638;2023-08-31T01:29:14;1.45;;;0.40;;
81320;SDS011;70785;52.570;5.638;2023-08-31T01:31:43;1.80;;;0.43;;
81320;SDS011;70785;52.570;5.638;2023-08-31T01:34:10;2.15;;;0.50;;
81320;SDS011;70785;52.570;5.638;2023-08-31T01:36:39;2.50;;;0.93;;
81320;SDS011;70785;52.570;5.638;2023-08-31T01:41:46;3.35;;;0.90;;
81320;SDS011;70785;52.570;5.638;2023-08-31T01:44:16;4.43;;;1.85;;
81320;SDS011;70785;52.570;5.638;2023-08-31T01:46:45;4.20;;;1.80;;
81320;SDS011;70785;52.570;5.638;2023-08-31T01:49:12;3.53;;;1.77;;
81320;SDS011;70785;52.570;5.638;2023-08-31T01:51:39;6.05;;;2.13;;
81320;SDS011;70785;52.570;5.638;2023-08-31T01:54:06;4.00;;;2.47;;
81320;SDS011;70785;52.570;5.638;2023-08-31T01:56:32;6.30;;;3.67;;
81320;SDS011;70785;52.570;5.638;2023-08-31T01:58:58;5.00;;;3.28;;
81320;SDS011;70785;52.570;5.638;2023-08-31T02:01:24;5.45;;;3.97;;
81320;SDS011;70785;52.570;5.638;2023-08-31T02:03:50;6.72;;;4.03;;
81320;SDS011;70785;52.570;5.638;2023-08-31T02:06:18;5.20;;;3.83;;
81320;SDS011;70785;52.570;5.638;2023-08-31T02:08:44;6.22;;;4.47;;
81320;SDS011;70785;52.570;5.638;2023-08-31T02:11:13;8.00;;;4.70;;
81320;SDS011;70785;52.570;5.638;2023-08-31T02:13:39;9.52;;;5.55;;
81320;SDS011;70785;52.570;5.638;2023-08-31T02:16:06;9.65;;;4.80;;
81320;SDS011;70785;52.570;5.638;2023-08-31T02:18:32;7.10;;;5.28;;
81320;SDS011;70785;52.570;5.638;2023-08-31T02:20:58;7.75;;;4.88;;
81320;SDS011;70785;52.570;5.638;2023-08-31T02:23:24;7.47;;;5.00;;
81320;SDS011;70785;52.570;5.638;2023-08-31T02:25:50;6.30;;;3.95;;
81320;SDS011;70785;52.570;5.638;2023-08-31T02:28:16;8.10;;;4.57;;
81320;SDS011;70785;52.570;5.638;2023-08-31T02:30:45;8.23;;;3.45;;
81320;SDS011;70785;52.570;5.638;2023-08-31T02:33:11;5.28;;;3.40;;
81320;SDS011;70785;52.570;5.638;2023-08-31T02:35:38;7.00;;;3.80;;
81320;SDS011;70785;52.570;5.638;2023-08-31T02:38:04;4.53;;;2.72;;
81320;SDS011;70785;52.570;5.638;2023-08-31T02:40:30;5.85;;;3.50;;
81320;SDS011;70785;52.570;5.638;2023-08-31T02:42:56;5.68;;;2.92;;
81320;SDS011;70785;52.570;5.638;2023-08-31T02:45:23;4.90;;;2.45;;
81320;SDS011;70785;52.570;5.638;2023-08-31T02:47:50;5.05;;;2.90;;
81320;SDS011;70785;52.570;5.638;2023-08-31T02:50:17;6.63;;;3.20;;
81320;SDS011;70785;52.570;5.638;2023-08-31T02:52:43;5.97;;;3.13;;
81320;SDS011;70785;52.570;5.638;2023-08-31T02:55:09;5.40;;;1.92;;
81320;SDS011;70785;52.570;5.638;2023-08-31T02:57:36;5.22;;;3.15;;
81320;SDS011;70785;52.570;5.638;2023-08-31T03:00:02;4.22;;;2.50;;
81320;SDS011;70785;52.570;5.638;2023-08-31T03:02:29;5.88;;;2.75;;
81320;SDS011;70785;52.570;5.638;2023-08-31T03:04:55;4.97;;;2.78;;
81320;SDS011;70785;52.570;5.638;2023-08-31T03:07:24;3.75;;;2.28;;
81320;SDS011;70785;52.570;5.638;2023-08-31T03:09:50;4.40;;;2.58;;
81320;SDS011;70785;52.570;5.638;2023-08-31T03:12:16;6.40;;;2.53;;
81320;SDS011;70785;52.570;5.638;2023-08-31T03:14:42;4.00;;;1.90;;
81320;SDS011;70785;52.570;5.638;2023-08-31T03:17:08;4.38;;;2.10;;
81320;SDS011;70785;52.570;5.638;2023-08-31T03:19:35;5.32;;;2.20;;
81320;SDS011;70785;52.570;5.638;2023-08-31T03:22:01;4.75;;;2.08;;
81320;SDS011;70785;52.570;5.638;2023-08-31T03:24:27;6.90;;;2.10;;
81320;SDS011;70785;52.570;5.638;2023-08-31T03:26:55;2.72;;;1.52;;
81320;SDS011;70785;52.570;5.638;2023-08-31T03:29:22;4.10;;;1.38;;
81320;SDS011;70785;52.570;5.638;2023-08-31T03:31:48;3.92;;;1.27;;
81320;SDS011;70785;52.570;5.638;2023-08-31T03:34:15;2.75;;;1.13;;
81320;SDS011;70785;52.570;5.638;2023-08-31T03:36:41;3.13;;;1.05;;
81320;SDS011;70785;52.570;5.638;2023-08-31T03:39:07;4.25;;;1.65;;
81320;SDS011;70785;52.570;5.638;2023-08-31T03:41:35;3.22;;;0.80;;
81320;SDS011;70785;52.570;5.638;2023-08-31T03:44:01;4.82;;;1.15;;
81320;SDS011;70785;52.570;5.638;2023-08-31T03:46:27;7.93;;;1.27;;
81320;SDS011;70785;52.570;5.638;2023-08-31T03:48:54;3.90;;;0.82;;
81320;SDS011;70785;52.570;5.638;2023-08-31T03:51:20;4.18;;;1.02;;
81320;SDS011;70785;52.570;5.638;2023-08-31T03:53:46;6.38;;;1.17;;
81320;SDS011;70785;52.570;5.638;2023-08-31T03:56:13;3.15;;;1.20;;
81320;SDS011;70785;52.570;5.638;2023-08-31T03:58:39;5.40;;;1.42;;
81320;SDS011;70785;52.570;5.638;2023-08-31T04:01:05;5.30;;;1.38;;
81320;SDS011;70785;52.570;5.638;2023-08-31T04:03:32;1.73;;;0.88;;
81320;SDS011;70785;52.570;5.638;2023-08-31T04:05:58;3.90;;;1.50;;
81320;SDS011;70785;52.570;5.638;2023-08-31T04:08:24;5.38;;;1.90;;
81320;SDS011;70785;52.570;5.638;2023-08-31T04:10:50;3.55;;;1.58;;
81320;SDS011;70785;52.570;5.638;2023-08-31T04:13:16;3.45;;;1.60;;
81320;SDS011;70785;52.570;5.638;2023-08-31T04:15:42;6.82;;;1.13;;
81320;SDS011;70785;52.570;5.638;2023-08-31T04:18:08;5.40;;;1.55;;
81320;SDS011;70785;52.570;5.638;2023-08-31T04:20:34;6.18;;;2.10;;
81320;SDS011;70785;52.570;5.638;2023-08-31T04:23:01;5.00;;;1.30;;
81320;SDS011;70785;52.570;5.638;2023-08-31T04:25:28;3.55;;;1.00;;
81320;SDS011;70785;52.570;5.638;2023-08-31T04:27:56;1.60;;;0.70;;
81320;SDS011;70785;52.570;5.638;2023-08-31T04:30:23;4.00;;;1.10;;
81320;SDS011;70785;52.570;5.638;2023-08-31T04:32:49;2.95;;;1.10;;
81320;SDS011;70785;52.570;5.638;2023-08-31T04:35:15;2.20;;;1.27;;
81320;SDS011;70785;52.570;5.638;2023-08-31T04:37:41;3.78;;;0.90;;
81320;SDS011;70785;52.570;5.638;2023-08-31T04:40:07;4.18;;;1.10;;
81320;SDS011;70785;52.570;5.638;2023-08-31T04:42:34;2.72;;;1.00;;
81320;SDS011;70785;52.570;5.638;2023-08-31T04:45:00;3.65;;;1.02;;
81320;SDS011;70785;52.570;5.638;2023-08-31T04:47:26;2.78;;;0.90;;
81320;SDS011;70785;52.570;5.638;2023-08-31T04:49:52;3.58;;;0.98;;
81320;SDS011;70785;52.570;5.638;2023-08-31T04:52:19;2.83;;;0.93;;
81320;SDS011;70785;52.570;5.638;2023-08-31T04:54:45;2.20;;;0.70;;
81320;SDS011;70785;52.570;5.638;2023-08-31T04:57:11;5.43;;;1.13;;
81320;SDS011;70785;52.570;5.638;2023-08-31T04:59:37;3.80;;;0.60;;
81320;SDS011;70785;52.570;5.638;2023-08-31T05:02:03;1.80;;;0.60;;
81320;SDS011;70785;52.570;5.638;2023-08-31T05:04:29;3.95;;;0.73;;
81320;SDS011;70785;52.570;5.638;2023-08-31T05:06:56;3.22;;;1.33;;
81320;SDS011;70785;52.570;5.638;2023-08-31T05:09:24;3.60;;;0.98;;
81320;SDS011;70785;52.570;5.638;2023-08-31T05:11:50;5.63;;;0.82;;
81320;SDS011;70785;52.570;5.638;2023-08-31T05:14:16;3.17;;;0.77;;
81320;SDS011;70785;52.570;5.638;2023-08-31T05:16:43;3.10;;;0.98;;
81320;SDS011;70785;52.570;5.638;2023-08-31T05:19:09;2.20;;;0.60;;
81320;SDS011;70785;52.570;5.638;2023-08-31T05:21:35;2.83;;;1.10;;
81320;SDS011;70785;52.570;5.638;2023-08-31T05:24:01;1.35;;;0.60;;
81320;SDS011;70785;52.570;5.638;2023-08-31T05:26:27;4.63;;;1.08;;
81320;SDS011;70785;52.570;5.638;2023-08-31T05:28:53;3.38;;;1.05;;
81320;SDS011;70785;52.570;5.638;2023-08-31T05:31:19;3.47;;;1.00;;
81320;SDS011;70785;52.570;5.638;2023-08-31T05:33:45;4.32;;;0.90;;
81320;SDS011;70785;52.570;5.638;2023-08-31T05:36:11;10.02;;;2.05;;
81320;SDS011;70785;52.570;5.638;2023-08-31T05:38:37;3.38;;;1.20;;
81320;SDS011;70785;52.570;5.638;2023-08-31T05:41:07;2.47;;;0.68;;
81320;SDS011;70785;52.570;5.638;2023-08-31T05:43:34;3.97;;;1.00;;
81320;SDS011;70785;52.570;5.638;2023-08-31T05:46:01;2.47;;;0.50;;
81320;SDS011;70785;52.570;5.638;2023-08-31T05:48:28;2.80;;;0.55;;
81320;SDS011;70785;52.570;5.638;2023-08-31T05:50:54;2.17;;;0.70;;
81320;SDS011;70785;52.570;5.638;2023-08-31T05:53:20;4.70;;;0.75;;
81320;SDS011;70785;52.570;5.638;2023-08-31T05:55:47;4.43;;;0.73;;
81320;SDS011;70785;52.570;5.638;2023-08-31T05:58:13;2.42;;;0.55;;
81320;SDS011;70785;52.570;5.638;2023-08-31T06:00:39;3.15;;;0.95;;
81320;SDS011;70785;52.570;5.638;2023-08-31T06:03:05;4.65;;;0.70;;
81320;SDS011;70785;52.570;5.638;2023-08-31T06:05:32;2.67;;;0.50;;
81320;SDS011;70785;52.570;5.638;2023-08-31T06:07:58;1.77;;;0.43;;
81320;SDS011;70785;52.570;5.638;2023-08-31T06:10:25;2.78;;;0.50;;
81320;SDS011;70785;52.570;5.638;2023-08-31T06:12:51;1.80;;;0.32;;
81320;SDS011;70785;52.570;5.638;2023-08-31T06:15:17;1.98;;;0.43;;
81320;SDS011;70785;52.570;5.638;2023-08-31T06:17:43;1.67;;;0.38;;
81320;SDS011;70785;52.570;5.638;2023-08-31T06:20:10;1.88;;;0.40;;
81320;SDS011;70785;52.570;5.638;2023-08-31T06:22:36;2.78;;;0.55;;
81320;SDS011;70785;52.570;5.638;2023-08-31T06:25:02;3.25;;;0.93;;
81320;SDS011;70785;52.570;5.638;2023-08-31T06:27:31;3.28;;;0.65;;
81320;SDS011;70785;52.570;5.638;2023-08-31T06:29:57;1.95;;;0.60;;
81320;SDS011;70785;52.570;5.638;2023-08-31T06:32:23;0.77;;;0.70;;
81320;SDS011;70785;52.570;5.638;2023-08-31T06:34:49;3.20;;;0.38;;
81320;SDS011;70785;52.570;5.638;2023-08-31T06:37:15;4.47;;;0.85;;
81320;SDS011;70785;52.570;5.638;2023-08-31T06:39:41;2.03;;;0.70;;
81320;SDS011;70785;52.570;5.638;2023-08-31T06:42:07;1.58;;;0.50;;
81320;SDS011;70785;52.570;5.638;2023-08-31T06:44:36;1.20;;;0.45;;
81320;SDS011;70785;52.570;5.638;2023-08-31T06:47:02;3.45;;;0.73;;
81320;SDS011;70785;52.570;5.638;2023-08-31T06:49:29;6.57;;;1.27;;
81320;SDS011;70785;52.570;5.638;2023-08-31T06:51:58;3.13;;;0.70;;
81320;SDS011;70785;52.570;5.638;2023-08-31T06:54:25;3.33;;;0.70;;
81320;SDS011;70785;52.570;5.638;2023-08-31T06:56:51;3.45;;;0.57;;
81320;SDS011;70785;52.570;5.638;2023-08-31T06:59:17;1.67;;;0.30;;
81320;SDS011;70785;52.570;5.638;2023-08-31T07:01:44;3.97;;;0.70;;
81320;SDS011;70785;52.570;5.638;2023-08-31T07:04:10;2.33;;;0.70;;
81320;SDS011;70785;52.570;5.638;2023-08-31T07:06:36;8.30;;;1.98;;
81320;SDS011;70785;52.570;5.638;2023-08-31T07:09:02;3.53;;;0.70;;
81320;SDS011;70785;52.570;5.638;2023-08-31T07:11:31;8.27;;;1.80;;
81320;SDS011;70785;52.570;5.638;2023-08-31T07:13:57;6.07;;;1.02;;
81320;SDS011;70785;52.570;5.638;2023-08-31T07:16:24;3.08;;;0.70;;
81320;SDS011;70785;52.570;5.638;2023-08-31T07:18:51;2.25;;;0.52;;
81320;SDS011;70785;52.570;5.638;2023-08-31T07:21:17;1.48;;;0.35;;
81320;SDS011;70785;52.570;5.638;2023-08-31T07:23:43;4.35;;;0.70;;
81320;SDS011;70785;52.570;5.638;2023-08-31T07:26:10;4.38;;;0.95;;
81320;SDS011;70785;52.570;5.638;2023-08-31T07:28:36;4.32;;;1.95;;
81320;SDS011;70785;52.570;5.638;2023-08-31T07:31:05;1.85;;;0.57;;
81320;SDS011;70785;52.570;5.638;2023-08-31T07:33:32;4.30;;;0.60;;
81320;SDS011;70785;52.570;5.638;2023-08-31T07:36:00;2.13;;;0.40;;
81320;SDS011;70785;52.570;5.638;2023-08-31T07:38:27;2.22;;;0.55;;
81320;SDS011;70785;52.570;5.638;2023-08-31T07:40:54;3.58;;;0.50;;
81320;SDS011;70785;52.570;5.638;2023-08-31T07:43:20;1.80;;;0.73;;
81320;SDS011;70785;52.570;5.638;2023-08-31T07:45:46;1.83;;;0.43;;
81320;SDS011;70785;52.570;5.638;2023-08-31T07:48:13;2.90;;;0.57;;
81320;SDS011;70785;52.570;5.638;2023-08-31T07:50:42;4.65;;;0.75;;
81320;SDS011;70785;52.570;5.638;2023-08-31T07:53:08;3.80;;;0.40;;
81320;SDS011;70785;52.570;5.638;2023-08-31T07:55:34;1.90;;;0.35;;
81320;SDS011;70785;52.570;5.638;2023-08-31T07:58:03;1.63;;;0.30;;
81320;SDS011;70785;52.570;5.638;2023-08-31T08:00:29;3.80;;;0.82;;
81320;SDS011;70785;52.570;5.638;2023-08-31T08:02:56;3.35;;;0.40;;
81320;SDS011;70785;52.570;5.638;2023-08-31T08:05:22;2.67;;;0.90;;
81320;SDS011;70785;52.570;5.638;2023-08-31T08:07:48;1.42;;;0.85;;
81320;SDS011;70785;52.570;5.638;2023-08-31T08:10:14;3.03;;;0.57;;
81320;SDS011;70785;52.570;5.638;2023-08-31T08:12:41;1.17;;;0.45;;
81320;SDS011;70785;52.570;5.638;2023-08-31T08:15:12;2.08;;;0.40;;
81320;SDS011;70785;52.570;5.638;2023-08-31T08:17:39;4.05;;;0.82;;
81320;SDS011;70785;52.570;5.638;2023-08-31T08:20:06;1.63;;;0.70;;
81320;SDS011;70785;52.570;5.638;2023-08-31T08:22:32;0.60;;;0.40;;
81320;SDS011;70785;52.570;5.638;2023-08-31T08:24:59;3.90;;;1.15;;
81320;SDS011;70785;52.570;5.638;2023-08-31T08:27:25;5.55;;;1.45;;
81320;SDS011;70785;52.570;5.638;2023-08-31T08:29:51;2.03;;;0.45;;
81320;SDS011;70785;52.570;5.638;2023-08-31T08:32:17;3.33;;;0.73;;
81320;SDS011;70785;52.570;5.638;2023-08-31T08:34:44;1.55;;;0.85;;
81320;SDS011;70785;52.570;5.638;2023-08-31T08:37:10;3.13;;;0.60;;
81320;SDS011;70785;52.570;5.638;2023-08-31T08:39:36;2.72;;;1.00;;
81320;SDS011;70785;52.570;5.638;2023-08-31T08:42:04;2.65;;;0.57;;
81320;SDS011;70785;52.570;5.638;2023-08-31T08:44:31;6.00;;;1.17;;
81320;SDS011;70785;52.570;5.638;2023-08-31T08:47:00;3.10;;;0.30;;
81320;SDS011;70785;52.570;5.638;2023-08-31T08:49:26;3.25;;;0.50;;
81320;SDS011;70785;52.570;5.638;2023-08-31T08:51:53;2.28;;;0.35;;
81320;SDS011;70785;52.570;5.638;2023-08-31T08:54:20;3.65;;;0.90;;
81320;SDS011;70785;52.570;5.638;2023-08-31T08:56:48;4.25;;;0.60;;
81320;SDS011;70785;52.570;5.638;2023-08-31T08:59:14;3.72;;;0.50;;
81320;SDS011;70785;52.570;5.638;2023-08-31T09:01:40;1.30;;;0.40;;
81320;SDS011;70785;52.570;5.638;2023-08-31T09:04:08;1.40;;;0.40;;
81320;SDS011;70785;52.570;5.638;2023-08-31T09:06:35;4.13;;;0.95;;
81320;SDS011;70785;52.570;5.638;2023-08-31T09:09:01;2.90;;;0.82;;
81320;SDS011;70785;52.570;5.638;2023-08-31T09:11:28;2.92;;;0.63;;
81320;SDS011;70785;52.570;5.638;2023-08-31T09:13:54;1.50;;;0.70;;
81320;SDS011;70785;52.570;5.638;2023-08-31T09:16:26;1.52;;;0.28;;
81320;SDS011;70785;52.570;5.638;2023-08-31T09:18:57;1.85;;;0.60;;
81320;SDS011;70785;52.570;5.638;2023-08-31T09:21:34;2.72;;;0.55;;
81320;SDS011;70785;52.570;5.638;2023-08-31T09:24:01;2.28;;;0.30;;
81320;SDS011;70785;52.570;5.638;2023-08-31T09:26:28;2.38;;;0.43;;
81320;SDS011;70785;52.570;5.638;2023-08-31T09:28:54;1.48;;;0.30;;
81320;SDS011;70785;52.570;5.638;2023-08-31T09:31:21;1.63;;;0.32;;
81320;SDS011;70785;52.570;5.638;2023-08-31T09:33:54;3.22;;;0.50;;
81320;SDS011;70785;52.570;5.638;2023-08-31T09:36:20;3.40;;;1.02;;
81320;SDS011;70785;52.570;5.638;2023-08-31T09:38:48;3.45;;;0.60;;
81320;SDS011;70785;52.570;5.638;2023-08-31T09:41:14;2.70;;;0.40;;
81320;SDS011;70785;52.570;5.638;2023-08-31T09:43:41;3.00;;;0.35;;
81320;SDS011;70785;52.570;5.638;2023-08-31T09:46:08;1.90;;;0.50;;
81320;SDS011;70785;52.570;5.638;2023-08-31T09:48:35;4.18;;;0.45;;
81320;SDS011;70785;52.570;5.638;2023-08-31T09:51:06;1.55;;;0.47;;
81320;SDS011;70785;52.570;5.638;2023-08-31T09:53:35;1.98;;;0.73;;
81320;SDS011;70785;52.570;5.638;2023-08-31T09:56:04;2.05;;;1.08;;
81320;SDS011;70785;52.570;5.638;2023-08-31T09:58:32;5.72;;;0.82;;
81320;SDS011;70785;52.570;5.638;2023-08-31T10:00:58;4.05;;;0.75;;
81320;SDS011;70785;52.570;5.638;2023-08-31T10:03:25;4.85;;;0.80;;
81320;SDS011;70785;52.570;5.638;2023-08-31T10:05:52;3.38;;;0.38;;
81320;SDS011;70785;52.570;5.638;2023-08-31T10:08:20;2.58;;;0.40;;
81320;SDS011;70785;52.570;5.638;2023-08-31T10:10:46;3.58;;;0.55;;
81320;SDS011;70785;52.570;5.638;2023-08-31T10:13:13;4.15;;;0.70;;
81320;SDS011;70785;52.570;5.638;2023-08-31T10:15:41;4.75;;;1.00;;
81320;SDS011;70785;52.570;5.638;2023-08-31T10:18:09;2.55;;;0.45;;
81320;SDS011;70785;52.570;5.638;2023-08-31T10:20:35;4.65;;;0.88;;
81320;SDS011;70785;52.570;5.638;2023-08-31T10:23:02;7.43;;;2.58;;
81320;SDS011;70785;52.570;5.638;2023-08-31T10:28:18;2.33;;;0.40;;
81320;SDS011;70785;52.570;5.638;2023-08-31T10:33:33;1.52;;;0.65;;
81320;SDS011;70785;52.570;5.638;2023-08-31T10:36:00;5.55;;;1.00;;
81320;SDS011;70785;52.570;5.638;2023-08-31T10:38:30;1.45;;;0.50;;
81320;SDS011;70785;52.570;5.638;2023-08-31T10:43:26;4.03;;;0.77;;
81320;SDS011;70785;52.570;5.638;2023-08-31T10:45:52;3.13;;;0.40;;
81320;SDS011;70785;52.570;5.638;2023-08-31T10:48:18;4.20;;;0.82;;
81320;SDS011;70785;52.570;5.638;2023-08-31T10:50:45;2.58;;;0.35;;
81320;SDS011;70785;52.570;5.638;2023-08-31T10:53:14;4.50;;;0.90;;
81320;SDS011;70785;52.570;5.638;2023-08-31T10:55:50;5.22;;;0.80;;
81320;SDS011;70785;52.570;5.638;2023-08-31T11:00:47;1.50;;;0.40;;
81320;SDS011;70785;52.570;5.638;2023-08-31T11:03:18;3.67;;;0.52;;
81320;SDS011;70785;52.570;5.638;2023-08-31T11:05:50;1.48;;;0.70;;
81320;SDS011;70785;52.570;5.638;2023-08-31T11:08:24;3.83;;;0.30;;
81320;SDS011;70785;52.570;5.638;2023-08-31T11:10:51;3.55;;;0.70;;
81320;SDS011;70785;52.570;5.638;2023-08-31T11:13:20;3.17;;;0.68;;
81320;SDS011;70785;52.570;5.638;2023-08-31T11:15:46;3.15;;;0.50;;
81320;SDS011;70785;52.570;5.638;2023-08-31T11:18:12;3.75;;;0.40;;
81320;SDS011;70785;52.570;5.638;2023-08-31T11:20:43;4.95;;;0.50;;
81320;SDS011;70785;52.570;5.638;2023-08-31T11:23:10;6.07;;;0.88;;
81320;SDS011;70785;52.570;5.638;2023-08-31T11:25:36;2.00;;;0.45;;
81320;SDS011;70785;52.570;5.638;2023-08-31T11:28:03;5.53;;;0.63;;
81320;SDS011;70785;52.570;5.638;2023-08-31T11:30:31;2.83;;;0.70;;
81320;SDS011;70785;52.570;5.638;2023-08-31T11:33:02;4.82;;;1.02;;
81320;SDS011;70785;52.570;5.638;2023-08-31T11:35:39;1.45;;;0.40;;
81320;SDS011;70785;52.570;5.638;2023-08-31T11:38:07;1.30;;;0.40;;
81320;SDS011;70785;52.570;5.638;2023-08-31T11:40:33;3.38;;;1.08;;
81320;SDS011;70785;52.570;5.638;2023-08-31T11:42:59;2.88;;;0.40;;
81320;SDS011;70785;52.570;5.638;2023-08-31T11:45:25;2.08;;;0.77;;
81320;SDS011;70785;52.570;5.638;2023-08-31T11:47:53;3.55;;;0.60;;
81320;SDS011;70785;52.570;5.638;2023-08-31T11:50:21;1.65;;;0.73;;
81320;SDS011;70785;52.570;5.638;2023-08-31T11:52:49;2.53;;;1.27;;
81320;SDS011;70785;52.570;5.638;2023-08-31T11:55:16;2.72;;;0.70;;
81320;SDS011;70785;52.570;5.638;2023-08-31T11:57:52;2.45;;;0.82;;
81320;SDS011;70785;52.570;5.638;2023-08-31T12:00:22;1.58;;;0.60;;
81320;SDS011;70785;52.570;5.638;2023-08-31T12:02:58;4.35;;;0.90;;
81320;SDS011;70785;52.570;5.638;2023-08-31T12:05:30;1.13;;;0.60;;
81320;SDS011;70785;52.570;5.638;2023-08-31T12:08:10;3.10;;;1.15;;
81320;SDS011;70785;52.570;5.638;2023-08-31T12:10:39;2.75;;;0.70;;
81320;SDS011;70785;52.570;5.638;2023-08-31T12:15:33;3.30;;;0.40;;
81320;SDS011;70785;52.570;5.638;2023-08-31T12:18:06;3.13;;;0.40;;
81320;SDS011;70785;52.570;5.638;2023-08-31T12:20:46;3.20;;;0.47;;
81320;SDS011;70785;52.570;5.638;2023-08-31T12:23:13;2.28;;;0.38;;
81320;SDS011;70785;52.570;5.638;2023-08-31T12:25:46;2.88;;;0.50;;
81320;SDS011;70785;52.570;5.638;2023-08-31T12:28:19;2.08;;;0.52;;
81320;SDS011;70785;52.570;5.638;2023-08-31T12:30:48;6.15;;;0.63;;
81320;SDS011;70785;52.570;5.638;2023-08-31T12:33:16;2.72;;;0.50;;
81320;SDS011;70785;52.570;5.638;2023-08-31T12:35:43;2.38;;;0.57;;
81320;SDS011;70785;52.570;5.638;2023-08-31T12:38:09;2.85;;;0.50;;
81320;SDS011;70785;52.570;5.638;2023-08-31T12:40:35;2.60;;;0.30;;
81320;SDS011;70785;52.570;5.638;2023-08-31T12:43:01;6.10;;;0.77;;
81320;SDS011;70785;52.570;5.638;2023-08-31T12:45:28;1.25;;;0.43;;
81320;SDS011;70785;52.570;5.638;2023-08-31T12:47:54;1.45;;;0.50;;
81320;SDS011;70785;52.570;5.638;2023-08-31T12:50:20;1.50;;;0.70;;
81320;SDS011;70785;52.570;5.638;2023-08-31T12:52:46;1.48;;;0.50;;
81320;SDS011;70785;52.570;5.638;2023-08-31T12:55:16;8.88;;;2.15;;
81320;SDS011;70785;52.570;5.638;2023-08-31T12:57:42;1.10;;;0.43;;
81320;SDS011;70785;52.570;5.638;2023-08-31T13:00:09;3.13;;;0.77;;
81320;SDS011;70785;52.570;5.638;2023-08-31T13:02:40;3.67;;;0.63;;
81320;SDS011;70785;52.570;5.638;2023-08-31T13:05:06;2.67;;;0.73;;
81320;SDS011;70785;52.570;5.638;2023-08-31T13:07:36;2.05;;;0.30;;
81320;SDS011;70785;52.570;5.638;2023-08-31T13:10:03;3.33;;;0.40;;
81320;SDS011;70785;52.570;5.638;2023-08-31T13:12:30;4.78;;;0.60;;
81320;SDS011;70785;52.570;5.638;2023-08-31T13:14:57;2.17;;;0.60;;
81320;SDS011;70785;52.570;5.638;2023-08-31T13:17:23;2.40;;;0.60;;
81320;SDS011;70785;52.570;5.638;2023-08-31T13:19:52;2.05;;;0.40;;
81320;SDS011;70785;52.570;5.638;2023-08-31T13:22:19;2.20;;;0.88;;
81320;SDS011;70785;52.570;5.638;2023-08-31T13:24:46;3.25;;;0.43;;
81320;SDS011;70785;52.570;5.638;2023-08-31T13:27:12;3.90;;;0.60;;
81320;SDS011;70785;52.570;5.638;2023-08-31T13:29:42;5.03;;;0.43;;
81320;SDS011;70785;52.570;5.638;2023-08-31T13:32:08;2.13;;;0.95;;
81320;SDS011;70785;52.570;5.638;2023-08-31T13:34:35;3.47;;;0.52;;
81320;SDS011;70785;52.570;5.638;2023-08-31T13:37:04;3.10;;;0.40;;
81320;SDS011;70785;52.570;5.638;2023-08-31T13:39:31;2.92;;;0.40;;
81320;SDS011;70785;52.570;5.638;2023-08-31T13:41:59;6.22;;;0.95;;
81320;SDS011;70785;52.570;5.638;2023-08-31T13:44:29;1.83;;;0.60;;
81320;SDS011;70785;52.570;5.638;2023-08-31T13:46:56;4.63;;;1.08;;
81320;SDS011;70785;52.570;5.638;2023-08-31T13:49:22;5.47;;;0.80;;
81320;SDS011;70785;52.570;5.638;2023-08-31T13:51:48;3.28;;;0.82;;
81320;SDS011;70785;52.570;5.638;2023-08-31T13:54:15;5.50;;;0.93;;
81320;SDS011;70785;52.570;5.638;2023-08-31T13:56:41;3.15;;;0.50;;
81320;SDS011;70785;52.570;5.638;2023-08-31T13:59:08;2.42;;;0.52;;
81320;SDS011;70785;52.570;5.638;2023-08-31T14:01:34;3.17;;;0.63;;
81320;SDS011;70785;52.570;5.638;2023-08-31T14:04:01;2.15;;;0.68;;
81320;SDS011;70785;52.570;5.638;2023-08-31T14:06:29;2.55;;;0.85;;
81320;SDS011;70785;52.570;5.638;2023-08-31T14:08:55;3.08;;;0.60;;
81320;SDS011;70785;52.570;5.638;2023-08-31T14:11:21;2.05;;;0.90;;
81320;SDS011;70785;52.570;5.638;2023-08-31T14:13:47;3.63;;;0.80;;
81320;SDS011;70785;52.570;5.638;2023-08-31T14:16:14;3.38;;;0.63;;
81320;SDS011;70785;52.570;5.638;2023-08-31T14:18:40;5.32;;;0.82;;
81320;SDS011;70785;52.570;5.638;2023-08-31T14:21:06;2.70;;;0.60;;
81320;SDS011;70785;52.570;5.638;2023-08-31T14:23:40;2.05;;;0.50;;
81320;SDS011;70785;52.570;5.638;2023-08-31T14:26:06;1.98;;;0.98;;
81320;SDS011;70785;52.570;5.638;2023-08-31T14:28:35;1.95;;;0.70;;
81320;SDS011;70785;52.570;5.638;2023-08-31T14:31:08;3.15;;;0.60;;
81320;SDS011;70785;52.570;5.638;2023-08-31T14:33:35;1.85;;;0.57;;
81320;SDS011;70785;52.570;5.638;2023-08-31T14:36:02;2.80;;;0.80;;
81320;SDS011;70785;52.570;5.638;2023-08-31T14:38:28;2.20;;;1.00;;
81320;SDS011;70785;52.570;5.638;2023-08-31T14:40:54;5.28;;;0.70;;
81320;SDS011;70785;52.570;5.638;2023-08-31T14:43:20;2.53;;;0.90;;
81320;SDS011;70785;52.570;5.638;2023-08-31T14:45:47;4.13;;;1.10;;
81320;SDS011;70785;52.570;5.638;2023-08-31T14:48:13;2.28;;;0.40;;
81320;SDS011;70785;52.570;5.638;2023-08-31T14:50:41;3.30;;;0.70;;
81320;SDS011;70785;52.570;5.638;2023-08-31T14:53:09;1.63;;;0.82;;
81320;SDS011;70785;52.570;5.638;2023-08-31T14:55:35;3.63;;;1.05;;
81320;SDS011;70785;52.570;5.638;2023-08-31T14:58:01;1.25;;;0.70;;
81320;SDS011;70785;52.570;5.638;2023-08-31T15:00:30;2.38;;;1.35;;
81320;SDS011;70785;52.570;5.638;2023-08-31T15:02:57;3.95;;;0.80;;
81320;SDS011;70785;52.570;5.638;2023-08-31T15:05:23;2.63;;;0.95;;